Main page
METAR-TAF:

METAR-TAF

Airports :

RAF Shawbury

Shawbury, England

latitude: 52-48N, longitude: 002-40W, elevation: 76 m

Current weather observation

The report was made 39 minutes ago, at 13:50 UTC
Wind 20 kt from the West
Temperature 9°C
Humidity 66%
Pressure 1015 hPa
Visibility 10 km or more

METAR: EGOS 221350Z AUTO 26020KT 9999 FEW042/// BKN130/// 09/03 Q1015

Time: 14:29 (14:29 UTC)

Forecast

The report was made 24 hours and 50 minutes ago, at 13:39 UTC
Forecast valid from 21 at 15 UTC to 21 at 18 UTC
Wind 18 kt from the Southwest with gusts up to 28 kt
Visibility 10 km or more
Broken clouds at a height of 3000 ft
Probability 40% :
Temporary
from 21 at 15 UTC to 21 at 18 UTC
Wind 28 kt from the Southwest with gusts up to 38 kt
Scattered clouds at a height of 2000 ft
light rain

TAF: EGOS 211339Z 2115/2118 22018G28KT 9999 BKN030 PROB40 TEMPO 2115/2118 22028G38KT -RA SCT020

Weather observations and forecasts of more than 4000 airports (METAR and TAF reports).

The available stations are represented by yellow and red dots on the map.

Hover mouse over dot to see the name of the station.

Then click to see weather observations and forecasts.

To change the map : click on the green buttons with a black cross to zoom in, on the green button with a dash to zoom out, or on the green arrows for adjacent maps.


METAR-TAF: